sensor_id;sensor_type;location;lat;lon;timestamp;P1;durP1;ratioP1;P2;durP2;ratioP2
85243;SDS011;75643;56.928;41.094;2024-01-25T00:02:23;29.17;;;11.48;;
85243;SDS011;75643;56.928;41.094;2024-01-25T00:04:52;22.00;;;9.57;;
85243;SDS011;75643;56.928;41.094;2024-01-25T00:07:20;20.75;;;8.63;;
85243;SDS011;75643;56.928;41.094;2024-01-25T00:09:46;19.85;;;8.63;;
85243;SDS011;75643;56.928;41.094;2024-01-25T00:12:12;32.10;;;11.70;;
85243;SDS011;75643;56.928;41.094;2024-01-25T00:14:39;27.60;;;10.75;;
85243;SDS011;75643;56.928;41.094;2024-01-25T00:17:05;21.33;;;9.65;;
85243;SDS011;75643;56.928;41.094;2024-01-25T00:19:31;27.90;;;11.23;;
85243;SDS011;75643;56.928;41.094;2024-01-25T00:21:59;21.50;;;9.30;;
85243;SDS011;75643;56.928;41.094;2024-01-25T00:24:26;31.05;;;11.73;;
85243;SDS011;75643;56.928;41.094;2024-01-25T00:26:52;28.83;;;11.82;;
85243;SDS011;75643;56.928;41.094;2024-01-25T00:29:18;25.85;;;10.48;;
85243;SDS011;75643;56.928;41.094;2024-01-25T00:31:44;27.10;;;12.38;;
85243;SDS011;75643;56.928;41.094;2024-01-25T00:34:10;29.60;;;11.75;;
85243;SDS011;75643;56.928;41.094;2024-01-25T00:36:37;29.23;;;10.48;;
85243;SDS011;75643;56.928;41.094;2024-01-25T00:39:03;26.60;;;10.48;;
85243;SDS011;75643;56.928;41.094;2024-01-25T00:41:30;30.13;;;12.32;;
85243;SDS011;75643;56.928;41.094;2024-01-25T00:43:58;32.30;;;12.10;;
85243;SDS011;75643;56.928;41.094;2024-01-25T00:46:25;29.73;;;11.25;;
85243;SDS011;75643;56.928;41.094;2024-01-25T00:48:51;31.73;;;12.52;;
85243;SDS011;75643;56.928;41.094;2024-01-25T00:51:20;27.80;;;10.77;;
85243;SDS011;75643;56.928;41.094;2024-01-25T00:53:50;27.02;;;11.10;;
85243;SDS011;75643;56.928;41.094;2024-01-25T00:56:17;28.02;;;11.20;;
85243;SDS011;75643;56.928;41.094;2024-01-25T00:58:45;29.58;;;12.60;;
85243;SDS011;75643;56.928;41.094;2024-01-25T01:01:12;32.50;;;11.88;;
85243;SDS011;75643;56.928;41.094;2024-01-25T01:03:38;34.28;;;11.38;;
85243;SDS011;75643;56.928;41.094;2024-01-25T01:06:05;35.78;;;13.23;;
85243;SDS011;75643;56.928;41.094;2024-01-25T01:08:31;28.55;;;11.93;;
85243;SDS011;75643;56.928;41.094;2024-01-25T01:10:58;29.05;;;10.95;;
85243;SDS011;75643;56.928;41.094;2024-01-25T01:13:24;34.20;;;12.32;;
85243;SDS011;75643;56.928;41.094;2024-01-25T01:15:50;31.58;;;11.65;;
85243;SDS011;75643;56.928;41.094;2024-01-25T01:18:16;35.60;;;13.32;;
85243;SDS011;75643;56.928;41.094;2024-01-25T01:20:43;30.83;;;11.70;;
85243;SDS011;75643;56.928;41.094;2024-01-25T01:23:09;26.38;;;10.43;;
85243;SDS011;75643;56.928;41.094;2024-01-25T01:25:35;28.25;;;10.77;;
85243;SDS011;75643;56.928;41.094;2024-01-25T01:28:02;34.55;;;11.10;;
85243;SDS011;75643;56.928;41.094;2024-01-25T01:30:28;28.33;;;10.32;;
85243;SDS011;75643;56.928;41.094;2024-01-25T01:32:54;32.58;;;11.82;;
85243;SDS011;75643;56.928;41.094;2024-01-25T01:35:20;30.42;;;11.20;;
85243;SDS011;75643;56.928;41.094;2024-01-25T01:37:46;33.20;;;11.93;;
85243;SDS011;75643;56.928;41.094;2024-01-25T01:40:13;35.22;;;12.82;;
85243;SDS011;75643;56.928;41.094;2024-01-25T01:42:39;35.53;;;12.52;;
85243;SDS011;75643;56.928;41.094;2024-01-25T01:45:05;32.33;;;12.63;;
85243;SDS011;75643;56.928;41.094;2024-01-25T01:47:32;30.80;;;10.82;;
85243;SDS011;75643;56.928;41.094;2024-01-25T01:49:58;36.92;;;12.27;;
85243;SDS011;75643;56.928;41.094;2024-01-25T01:52:24;31.30;;;12.48;;
85243;SDS011;75643;56.928;41.094;2024-01-25T01:54:51;31.42;;;11.07;;
85243;SDS011;75643;56.928;41.094;2024-01-25T01:57:17;32.72;;;12.90;;
85243;SDS011;75643;56.928;41.094;2024-01-25T01:59:43;34.40;;;11.02;;
85243;SDS011;75643;56.928;41.094;2024-01-25T02:02:10;29.35;;;10.88;;
85243;SDS011;75643;56.928;41.094;2024-01-25T02:04:36;32.40;;;9.63;;
85243;SDS011;75643;56.928;41.094;2024-01-25T02:07:02;33.20;;;12.15;;
85243;SDS011;75643;56.928;41.094;2024-01-25T02:09:29;23.20;;;10.02;;
85243;SDS011;75643;56.928;41.094;2024-01-25T02:11:59;35.22;;;11.57;;
85243;SDS011;75643;56.928;41.094;2024-01-25T02:14:28;39.22;;;13.82;;
85243;SDS011;75643;56.928;41.094;2024-01-25T02:16:54;34.28;;;12.20;;
85243;SDS011;75643;56.928;41.094;2024-01-25T02:19:20;36.83;;;11.65;;
85243;SDS011;75643;56.928;41.094;2024-01-25T02:21:46;36.75;;;11.98;;
85243;SDS011;75643;56.928;41.094;2024-01-25T02:24:14;35.03;;;10.98;;
85243;SDS011;75643;56.928;41.094;2024-01-25T02:26:40;43.22;;;13.00;;
85243;SDS011;75643;56.928;41.094;2024-01-25T02:29:09;26.45;;;9.73;;
85243;SDS011;75643;56.928;41.094;2024-01-25T02:31:36;31.65;;;11.25;;
85243;SDS011;75643;56.928;41.094;2024-01-25T02:34:02;34.38;;;10.45;;
85243;SDS011;75643;56.928;41.094;2024-01-25T02:36:28;42.83;;;13.15;;
85243;SDS011;75643;56.928;41.094;2024-01-25T02:38:54;33.80;;;12.02;;
85243;SDS011;75643;56.928;41.094;2024-01-25T02:41:20;29.65;;;11.18;;
85243;SDS011;75643;56.928;41.094;2024-01-25T02:43:46;37.85;;;11.52;;
85243;SDS011;75643;56.928;41.094;2024-01-25T02:46:13;49.72;;;13.73;;
85243;SDS011;75643;56.928;41.094;2024-01-25T02:48:39;33.65;;;12.05;;
85243;SDS011;75643;56.928;41.094;2024-01-25T02:51:05;47.03;;;13.30;;
85243;SDS011;75643;56.928;41.094;2024-01-25T02:53:32;43.90;;;14.75;;
85243;SDS011;75643;56.928;41.094;2024-01-25T02:55:58;43.75;;;12.32;;
85243;SDS011;75643;56.928;41.094;2024-01-25T02:58:24;31.88;;;13.00;;
85243;SDS011;75643;56.928;41.094;2024-01-25T03:00:50;47.42;;;14.68;;
85243;SDS011;75643;56.928;41.094;2024-01-25T03:03:16;44.65;;;14.25;;
85243;SDS011;75643;56.928;41.094;2024-01-25T03:05:42;43.05;;;13.85;;
85243;SDS011;75643;56.928;41.094;2024-01-25T03:08:09;43.70;;;13.90;;
85243;SDS011;75643;56.928;41.094;2024-01-25T03:10:35;41.35;;;11.32;;
85243;SDS011;75643;56.928;41.094;2024-01-25T03:13:01;40.15;;;13.75;;
85243;SDS011;75643;56.928;41.094;2024-01-25T03:15:29;40.40;;;13.30;;
85243;SDS011;75643;56.928;41.094;2024-01-25T03:17:55;45.90;;;13.20;;
85243;SDS011;75643;56.928;41.094;2024-01-25T03:20:21;42.15;;;11.57;;
85243;SDS011;75643;56.928;41.094;2024-01-25T03:22:48;35.80;;;11.15;;
85243;SDS011;75643;56.928;41.094;2024-01-25T03:25:16;39.15;;;12.95;;
85243;SDS011;75643;56.928;41.094;2024-01-25T03:27:42;37.78;;;13.20;;
85243;SDS011;75643;56.928;41.094;2024-01-25T03:30:08;46.33;;;14.35;;
85243;SDS011;75643;56.928;41.094;2024-01-25T03:32:35;37.67;;;12.68;;
85243;SDS011;75643;56.928;41.094;2024-01-25T03:35:01;39.65;;;13.00;;
85243;SDS011;75643;56.928;41.094;2024-01-25T03:37:28;47.20;;;12.73;;
85243;SDS011;75643;56.928;41.094;2024-01-25T03:39:56;43.47;;;12.95;;
85243;SDS011;75643;56.928;41.094;2024-01-25T03:42:22;37.03;;;11.32;;
85243;SDS011;75643;56.928;41.094;2024-01-25T03:44:48;40.85;;;12.15;;
85243;SDS011;75643;56.928;41.094;2024-01-25T03:47:14;43.95;;;14.23;;
85243;SDS011;75643;56.928;41.094;2024-01-25T03:49:40;33.95;;;12.48;;
85243;SDS011;75643;56.928;41.094;2024-01-25T03:52:10;42.15;;;12.57;;
85243;SDS011;75643;56.928;41.094;2024-01-25T03:54:38;39.35;;;12.80;;
85243;SDS011;75643;56.928;41.094;2024-01-25T03:57:04;35.30;;;10.93;;
85243;SDS011;75643;56.928;41.094;2024-01-25T03:59:30;45.90;;;13.45;;
85243;SDS011;75643;56.928;41.094;2024-01-25T04:01:57;39.83;;;12.93;;
85243;SDS011;75643;56.928;41.094;2024-01-25T04:04:23;35.22;;;12.13;;
85243;SDS011;75643;56.928;41.094;2024-01-25T04:06:50;39.78;;;13.52;;
85243;SDS011;75643;56.928;41.094;2024-01-25T04:09:16;38.55;;;13.30;;
85243;SDS011;75643;56.928;41.094;2024-01-25T04:11:44;45.35;;;13.27;;
85243;SDS011;75643;56.928;41.094;2024-01-25T04:14:10;34.38;;;11.38;;
85243;SDS011;75643;56.928;41.094;2024-01-25T04:16:36;28.73;;;11.98;;
85243;SDS011;75643;56.928;41.094;2024-01-25T04:19:02;31.63;;;10.20;;
85243;SDS011;75643;56.928;41.094;2024-01-25T04:21:28;37.28;;;11.20;;
85243;SDS011;75643;56.928;41.094;2024-01-25T04:23:55;41.85;;;13.55;;
85243;SDS011;75643;56.928;41.094;2024-01-25T04:26:21;37.22;;;11.57;;
85243;SDS011;75643;56.928;41.094;2024-01-25T04:28:47;34.30;;;12.73;;
85243;SDS011;75643;56.928;41.094;2024-01-25T04:31:13;36.35;;;12.52;;
85243;SDS011;75643;56.928;41.094;2024-01-25T04:33:41;37.83;;;12.27;;
85243;SDS011;75643;56.928;41.094;2024-01-25T04:36:08;34.30;;;12.30;;
85243;SDS011;75643;56.928;41.094;2024-01-25T04:38:35;37.90;;;12.63;;
85243;SDS011;75643;56.928;41.094;2024-01-25T04:41:02;34.78;;;11.98;;
85243;SDS011;75643;56.928;41.094;2024-01-25T04:43:36;34.10;;;12.43;;
85243;SDS011;75643;56.928;41.094;2024-01-25T04:46:06;41.65;;;14.43;;
85243;SDS011;75643;56.928;41.094;2024-01-25T04:48:38;39.42;;;12.20;;
85243;SDS011;75643;56.928;41.094;2024-01-25T04:51:05;29.98;;;12.35;;
85243;SDS011;75643;56.928;41.094;2024-01-25T04:53:32;31.85;;;11.70;;
85243;SDS011;75643;56.928;41.094;2024-01-25T04:56:00;33.50;;;10.63;;
85243;SDS011;75643;56.928;41.094;2024-01-25T04:58:27;32.03;;;10.60;;
85243;SDS011;75643;56.928;41.094;2024-01-25T05:00:54;33.30;;;10.27;;
85243;SDS011;75643;56.928;41.094;2024-01-25T05:03:21;27.42;;;10.57;;
85243;SDS011;75643;56.928;41.094;2024-01-25T05:05:48;34.78;;;12.57;;
85243;SDS011;75643;56.928;41.094;2024-01-25T05:08:14;27.25;;;11.38;;
85243;SDS011;75643;56.928;41.094;2024-01-25T05:10:41;24.75;;;9.98;;
85243;SDS011;75643;56.928;41.094;2024-01-25T05:13:08;32.47;;;13.38;;
85243;SDS011;75643;56.928;41.094;2024-01-25T05:15:34;33.83;;;12.80;;
85243;SDS011;75643;56.928;41.094;2024-01-25T05:18:04;28.42;;;11.00;;
85243;SDS011;75643;56.928;41.094;2024-01-25T05:20:31;28.13;;;12.10;;
85243;SDS011;75643;56.928;41.094;2024-01-25T05:22:58;23.00;;;8.55;;
85243;SDS011;75643;56.928;41.094;2024-01-25T05:25:25;35.58;;;13.00;;
85243;SDS011;75643;56.928;41.094;2024-01-25T05:27:54;28.77;;;13.13;;
85243;SDS011;75643;56.928;41.094;2024-01-25T05:30:21;43.90;;;20.83;;
85243;SDS011;75643;56.928;41.094;2024-01-25T05:32:48;29.65;;;11.55;;
85243;SDS011;75643;56.928;41.094;2024-01-25T05:35:15;34.25;;;13.88;;
85243;SDS011;75643;56.928;41.094;2024-01-25T05:37:42;30.50;;;12.52;;
85243;SDS011;75643;56.928;41.094;2024-01-25T05:40:09;38.50;;;15.88;;
85243;SDS011;75643;56.928;41.094;2024-01-25T05:42:35;28.60;;;12.35;;
85243;SDS011;75643;56.928;41.094;2024-01-25T05:45:02;30.98;;;11.52;;
85243;SDS011;75643;56.928;41.094;2024-01-25T05:47:30;28.52;;;11.73;;
85243;SDS011;75643;56.928;41.094;2024-01-25T05:49:56;19.70;;;8.50;;
85243;SDS011;75643;56.928;41.094;2024-01-25T05:52:23;32.10;;;9.40;;
85243;SDS011;75643;56.928;41.094;2024-01-25T05:54:50;21.75;;;9.95;;
85243;SDS011;75643;56.928;41.094;2024-01-25T05:57:17;22.23;;;9.63;;
85243;SDS011;75643;56.928;41.094;2024-01-25T05:59:44;20.13;;;8.77;;
85243;SDS011;75643;56.928;41.094;2024-01-25T06:02:10;24.55;;;12.70;;
85243;SDS011;75643;56.928;41.094;2024-01-25T06:04:36;24.00;;;14.93;;
85243;SDS011;75643;56.928;41.094;2024-01-25T06:07:03;37.25;;;22.60;;
85243;SDS011;75643;56.928;41.094;2024-01-25T06:09:29;17.73;;;8.80;;
85243;SDS011;75643;56.928;41.094;2024-01-25T06:11:57;22.60;;;11.75;;
85243;SDS011;75643;56.928;41.094;2024-01-25T06:14:24;24.70;;;13.30;;
85243;SDS011;75643;56.928;41.094;2024-01-25T06:16:50;23.40;;;10.15;;
85243;SDS011;75643;56.928;41.094;2024-01-25T06:19:16;18.08;;;8.73;;
85243;SDS011;75643;56.928;41.094;2024-01-25T06:21:43;23.25;;;9.82;;
85243;SDS011;75643;56.928;41.094;2024-01-25T06:24:09;26.52;;;10.13;;
85243;SDS011;75643;56.928;41.094;2024-01-25T06:26:35;19.85;;;9.02;;
85243;SDS011;75643;56.928;41.094;2024-01-25T06:29:01;23.05;;;9.98;;
85243;SDS011;75643;56.928;41.094;2024-01-25T06:31:27;33.28;;;13.70;;
85243;SDS011;75643;56.928;41.094;2024-01-25T06:33:53;25.95;;;9.73;;
85243;SDS011;75643;56.928;41.094;2024-01-25T06:36:20;22.83;;;9.45;;
85243;SDS011;75643;56.928;41.094;2024-01-25T06:38:46;18.83;;;7.95;;
85243;SDS011;75643;56.928;41.094;2024-01-25T06:41:14;18.70;;;6.85;;
85243;SDS011;75643;56.928;41.094;2024-01-25T06:43:42;19.17;;;8.13;;
85243;SDS011;75643;56.928;41.094;2024-01-25T06:46:08;17.42;;;8.07;;
85243;SDS011;75643;56.928;41.094;2024-01-25T06:48:35;18.10;;;7.50;;
85243;SDS011;75643;56.928;41.094;2024-01-25T06:51:04;16.77;;;7.80;;
85243;SDS011;75643;56.928;41.094;2024-01-25T06:53:32;22.92;;;11.15;;
85243;SDS011;75643;56.928;41.094;2024-01-25T06:58:50;19.50;;;10.32;;
85243;SDS011;75643;56.928;41.094;2024-01-25T07:01:26;17.90;;;8.93;;
85243;SDS011;75643;56.928;41.094;2024-01-25T07:03:53;26.05;;;12.82;;
85243;SDS011;75643;56.928;41.094;2024-01-25T07:06:19;19.25;;;8.60;;
85243;SDS011;75643;56.928;41.094;2024-01-25T07:08:47;19.45;;;8.43;;
85243;SDS011;75643;56.928;41.094;2024-01-25T07:11:13;18.17;;;9.18;;
85243;SDS011;75643;56.928;41.094;2024-01-25T07:13:40;19.73;;;9.18;;
85243;SDS011;75643;56.928;41.094;2024-01-25T07:16:08;21.70;;;10.43;;
85243;SDS011;75643;56.928;41.094;2024-01-25T07:18:35;16.70;;;7.32;;
85243;SDS011;75643;56.928;41.094;2024-01-25T07:21:01;16.83;;;8.43;;
85243;SDS011;75643;56.928;41.094;2024-01-25T07:23:29;19.38;;;8.23;;
85243;SDS011;75643;56.928;41.094;2024-01-25T07:25:55;17.42;;;8.70;;
85243;SDS011;75643;56.928;41.094;2024-01-25T07:28:23;18.50;;;7.65;;
85243;SDS011;75643;56.928;41.094;2024-01-25T07:30:49;21.67;;;10.20;;
85243;SDS011;75643;56.928;41.094;2024-01-25T07:33:15;21.75;;;7.90;;
85243;SDS011;75643;56.928;41.094;2024-01-25T07:35:42;15.77;;;7.15;;
85243;SDS011;75643;56.928;41.094;2024-01-25T07:40:38;16.73;;;7.57;;
85243;SDS011;75643;56.928;41.094;2024-01-25T07:43:05;23.42;;;10.77;;
85243;SDS011;75643;56.928;41.094;2024-01-25T07:45:32;19.05;;;8.68;;
85243;SDS011;75643;56.928;41.094;2024-01-25T07:47:59;22.90;;;9.38;;
85243;SDS011;75643;56.928;41.094;2024-01-25T07:50:25;17.75;;;8.43;;
85243;SDS011;75643;56.928;41.094;2024-01-25T07:52:52;21.77;;;7.45;;
85243;SDS011;75643;56.928;41.094;2024-01-25T07:55:20;16.70;;;7.57;;
85243;SDS011;75643;56.928;41.094;2024-01-25T07:57:47;15.57;;;6.53;;
85243;SDS011;75643;56.928;41.094;2024-01-25T08:00:16;22.60;;;8.65;;
85243;SDS011;75643;56.928;41.094;2024-01-25T08:02:42;21.55;;;9.20;;
85243;SDS011;75643;56.928;41.094;2024-01-25T08:05:10;14.15;;;7.25;;
85243;SDS011;75643;56.928;41.094;2024-01-25T08:07:37;17.02;;;7.28;;
85243;SDS011;75643;56.928;41.094;2024-01-25T08:10:04;17.10;;;7.65;;
85243;SDS011;75643;56.928;41.094;2024-01-25T08:12:31;17.52;;;8.50;;
85243;SDS011;75643;56.928;41.094;2024-01-25T08:15:00;17.35;;;7.25;;
85243;SDS011;75643;56.928;41.094;2024-01-25T08:17:26;22.55;;;9.90;;
85243;SDS011;75643;56.928;41.094;2024-01-25T08:19:52;14.85;;;7.43;;
85243;SDS011;75643;56.928;41.094;2024-01-25T08:22:18;16.70;;;7.93;;
85243;SDS011;75643;56.928;41.094;2024-01-25T08:24:45;53.20;;;27.88;;
85243;SDS011;75643;56.928;41.094;2024-01-25T08:27:12;28.50;;;12.95;;
85243;SDS011;75643;56.928;41.094;2024-01-25T08:29:39;21.20;;;8.63;;
85243;SDS011;75643;56.928;41.094;2024-01-25T08:32:06;22.50;;;9.38;;
85243;SDS011;75643;56.928;41.094;2024-01-25T08:34:34;18.90;;;9.25;;
85243;SDS011;75643;56.928;41.094;2024-01-25T08:37:00;18.45;;;7.45;;
85243;SDS011;75643;56.928;41.094;2024-01-25T08:39:26;19.88;;;8.52;;
85243;SDS011;75643;56.928;41.094;2024-01-25T08:41:53;20.95;;;10.93;;
85243;SDS011;75643;56.928;41.094;2024-01-25T08:44:19;30.50;;;14.98;;
85243;SDS011;75643;56.928;41.094;2024-01-25T08:46:45;28.42;;;15.00;;
85243;SDS011;75643;56.928;41.094;2024-01-25T08:49:11;35.33;;;18.30;;
85243;SDS011;75643;56.928;41.094;2024-01-25T08:51:38;24.25;;;9.95;;
85243;SDS011;75643;56.928;41.094;2024-01-25T08:54:04;22.83;;;10.52;;
85243;SDS011;75643;56.928;41.094;2024-01-25T08:56:31;23.40;;;11.25;;
85243;SDS011;75643;56.928;41.094;2024-01-25T08:58:57;30.23;;;14.32;;
85243;SDS011;75643;56.928;41.094;2024-01-25T09:01:23;27.88;;;11.43;;
85243;SDS011;75643;56.928;41.094;2024-01-25T09:03:49;28.98;;;12.88;;
85243;SDS011;75643;56.928;41.094;2024-01-25T09:06:15;19.35;;;9.95;;
85243;SDS011;75643;56.928;41.094;2024-01-25T09:08:42;22.25;;;9.15;;
85243;SDS011;75643;56.928;41.094;2024-01-25T09:11:08;28.63;;;11.82;;
85243;SDS011;75643;56.928;41.094;2024-01-25T09:13:34;25.48;;;11.30;;
85243;SDS011;75643;56.928;41.094;2024-01-25T09:16:00;24.98;;;11.65;;
85243;SDS011;75643;56.928;41.094;2024-01-25T09:18:26;17.73;;;8.65;;
85243;SDS011;75643;56.928;41.094;2024-01-25T09:20:52;24.45;;;11.05;;
85243;SDS011;75643;56.928;41.094;2024-01-25T09:23:19;22.42;;;9.57;;
85243;SDS011;75643;56.928;41.094;2024-01-25T09:25:46;18.65;;;9.18;;
85243;SDS011;75643;56.928;41.094;2024-01-25T09:28:12;21.15;;;8.70;;
85243;SDS011;75643;56.928;41.094;2024-01-25T09:30:41;20.55;;;8.82;;
85243;SDS011;75643;56.928;41.094;2024-01-25T09:33:08;19.75;;;7.90;;
85243;SDS011;75643;56.928;41.094;2024-01-25T09:35:35;20.15;;;8.27;;
85243;SDS011;75643;56.928;41.094;2024-01-25T09:38:01;16.23;;;7.47;;
85243;SDS011;75643;56.928;41.094;2024-01-25T09:40:27;17.50;;;7.53;;
85243;SDS011;75643;56.928;41.094;2024-01-25T09:42:54;18.08;;;8.18;;
85243;SDS011;75643;56.928;41.094;2024-01-25T09:45:21;21.55;;;8.50;;
85243;SDS011;75643;56.928;41.094;2024-01-25T09:47:50;17.98;;;7.95;;
85243;SDS011;75643;56.928;41.094;2024-01-25T09:50:19;22.88;;;8.35;;
85243;SDS011;75643;56.928;41.094;2024-01-25T09:52:45;13.25;;;5.90;;
85243;SDS011;75643;56.928;41.094;2024-01-25T09:55:20;17.15;;;7.05;;
85243;SDS011;75643;56.928;41.094;2024-01-25T09:57:51;21.02;;;8.60;;
85243;SDS011;75643;56.928;41.094;2024-01-25T10:00:21;17.70;;;8.07;;
85243;SDS011;75643;56.928;41.094;2024-01-25T10:02:47;19.42;;;8.38;;
85243;SDS011;75643;56.928;41.094;2024-01-25T10:05:17;18.27;;;7.78;;
85243;SDS011;75643;56.928;41.094;2024-01-25T10:07:45;21.67;;;9.68;;
85243;SDS011;75643;56.928;41.094;2024-01-25T10:10:12;19.38;;;8.48;;
85243;SDS011;75643;56.928;41.094;2024-01-25T10:12:42;21.23;;;8.45;;
85243;SDS011;75643;56.928;41.094;2024-01-25T10:15:09;15.23;;;6.80;;
85243;SDS011;75643;56.928;41.094;2024-01-25T10:17:36;19.60;;;8.82;;
85243;SDS011;75643;56.928;41.094;2024-01-25T10:20:04;23.70;;;8.65;;
85243;SDS011;75643;56.928;41.094;2024-01-25T10:22:39;17.13;;;7.07;;
85243;SDS011;75643;56.928;41.094;2024-01-25T10:25:14;19.83;;;8.40;;
85243;SDS011;75643;56.928;41.094;2024-01-25T10:27:41;14.77;;;7.65;;
85243;SDS011;75643;56.928;41.094;2024-01-25T10:30:08;22.92;;;9.65;;
85243;SDS011;75643;56.928;41.094;2024-01-25T10:32:35;18.10;;;7.35;;
85243;SDS011;75643;56.928;41.094;2024-01-25T10:35:02;18.65;;;8.15;;
85243;SDS011;75643;56.928;41.094;2024-01-25T10:37:30;17.75;;;7.63;;
85243;SDS011;75643;56.928;41.094;2024-01-25T10:39:58;18.27;;;8.18;;
85243;SDS011;75643;56.928;41.094;2024-01-25T10:42:27;16.88;;;7.13;;
85243;SDS011;75643;56.928;41.094;2024-01-25T10:44:53;17.98;;;7.93;;
85243;SDS011;75643;56.928;41.094;2024-01-25T10:47:20;16.35;;;7.72;;
85243;SDS011;75643;56.928;41.094;2024-01-25T10:49:47;22.02;;;8.15;;
85243;SDS011;75643;56.928;41.094;2024-01-25T10:52:14;18.77;;;7.40;;
85243;SDS011;75643;56.928;41.094;2024-01-25T10:54:41;19.30;;;7.50;;
85243;SDS011;75643;56.928;41.094;2024-01-25T10:57:11;20.35;;;9.32;;
85243;SDS011;75643;56.928;41.094;2024-01-25T10:59:38;20.05;;;7.80;;
85243;SDS011;75643;56.928;41.094;2024-01-25T11:02:05;13.05;;;6.47;;
85243;SDS011;75643;56.928;41.094;2024-01-25T11:04:34;16.38;;;6.97;;
85243;SDS011;75643;56.928;41.094;2024-01-25T11:07:04;16.27;;;6.65;;
85243;SDS011;75643;56.928;41.094;2024-01-25T11:09:34;14.73;;;6.35;;
85243;SDS011;75643;56.928;41.094;2024-01-25T11:12:08;17.15;;;7.15;;
85243;SDS011;75643;56.928;41.094;2024-01-25T11:14:37;15.05;;;7.45;;
85243;SDS011;75643;56.928;41.094;2024-01-25T11:17:21;13.95;;;6.70;;
85243;SDS011;75643;56.928;41.094;2024-01-25T11:19:48;17.25;;;7.45;;
85243;SDS011;75643;56.928;41.094;2024-01-25T11:22:17;15.02;;;7.75;;
85243;SDS011;75643;56.928;41.094;2024-01-25T11:24:45;16.23;;;7.43;;
85243;SDS011;75643;56.928;41.094;2024-01-25T11:27:14;12.70;;;6.25;;
85243;SDS011;75643;56.928;41.094;2024-01-25T11:29:42;19.65;;;8.05;;
85243;SDS011;75643;56.928;41.094;2024-01-25T11:32:08;20.80;;;7.93;;
85243;SDS011;75643;56.928;41.094;2024-01-25T11:34:35;11.98;;;5.88;;
85243;SDS011;75643;56.928;41.094;2024-01-25T11:37:02;15.32;;;7.70;;
85243;SDS011;75643;56.928;41.094;2024-01-25T11:39:29;14.00;;;6.50;;
85243;SDS011;75643;56.928;41.094;2024-01-25T11:41:55;17.25;;;7.85;;
85243;SDS011;75643;56.928;41.094;2024-01-25T11:44:22;19.88;;;10.18;;
85243;SDS011;75643;56.928;41.094;2024-01-25T11:46:50;14.00;;;6.38;;
85243;SDS011;75643;56.928;41.094;2024-01-25T12:06:55;12.65;;;6.07;;
85243;SDS011;75643;56.928;41.094;2024-01-25T12:12:28;16.58;;;6.68;;
85243;SDS011;75643;56.928;41.094;2024-01-25T12:14:58;13.13;;;6.97;;
85243;SDS011;75643;56.928;41.094;2024-01-25T12:17:32;17.20;;;6.75;;
85243;SDS011;75643;56.928;41.094;2024-01-25T12:35:11;15.25;;;7.88;;
85243;SDS011;75643;56.928;41.094;2024-01-25T12:37:38;22.13;;;7.85;;
85243;SDS011;75643;56.928;41.094;2024-01-25T12:40:04;20.15;;;9.18;;
85243;SDS011;75643;56.928;41.094;2024-01-25T12:42:31;17.73;;;7.35;;
85243;SDS011;75643;56.928;41.094;2024-01-25T12:54:14;15.73;;;6.93;;
85243;SDS011;75643;56.928;41.094;2024-01-25T13:21:14;22.98;;;8.23;;
85243;SDS011;75643;56.928;41.094;2024-01-25T13:26:36;21.75;;;9.27;;
85243;SDS011;75643;56.928;41.094;2024-01-25T13:29:03;23.17;;;9.20;;
85243;SDS011;75643;56.928;41.094;2024-01-25T13:46:28;22.75;;;9.85;;
85243;SDS011;75643;56.928;41.094;2024-01-25T14:07:15;17.92;;;6.90;;
85243;SDS011;75643;56.928;41.094;2024-01-25T14:09:43;18.02;;;8.00;;
85243;SDS011;75643;56.928;41.094;2024-01-25T14:15:04;19.63;;;7.45;;
85243;SDS011;75643;56.928;41.094;2024-01-25T14:17:31;15.18;;;6.55;;
85243;SDS011;75643;56.928;41.094;2024-01-25T14:19:57;18.05;;;8.05;;
85243;SDS011;75643;56.928;41.094;2024-01-25T14:22:23;17.70;;;6.68;;
85243;SDS011;75643;56.928;41.094;2024-01-25T14:24:50;21.65;;;9.93;;
85243;SDS011;75643;56.928;41.094;2024-01-25T14:27:16;15.25;;;7.13;;
85243;SDS011;75643;56.928;41.094;2024-01-25T14:29:42;19.30;;;8.48;;
85243;SDS011;75643;56.928;41.094;2024-01-25T14:32:09;14.10;;;6.80;;
85243;SDS011;75643;56.928;41.094;2024-01-25T14:34:35;16.45;;;6.78;;
85243;SDS011;75643;56.928;41.094;2024-01-25T14:37:02;16.27;;;7.45;;
85243;SDS011;75643;56.928;41.094;2024-01-25T14:39:28;14.73;;;7.53;;
85243;SDS011;75643;56.928;41.094;2024-01-25T14:41:57;13.35;;;6.03;;
85243;SDS011;75643;56.928;41.094;2024-01-25T14:44:24;17.02;;;7.35;;
85243;SDS011;75643;56.928;41.094;2024-01-25T14:46:50;16.48;;;7.30;;
85243;SDS011;75643;56.928;41.094;2024-01-25T14:49:16;13.13;;;6.57;;
85243;SDS011;75643;56.928;41.094;2024-01-25T14:51:43;19.85;;;7.65;;
85243;SDS011;75643;56.928;41.094;2024-01-25T14:54:10;14.88;;;6.72;;
85243;SDS011;75643;56.928;41.094;2024-01-25T14:56:37;17.85;;;7.97;;
85243;SDS011;75643;56.928;41.094;2024-01-25T14:59:04;17.08;;;6.85;;
85243;SDS011;75643;56.928;41.094;2024-01-25T15:01:33;18.20;;;6.82;;
85243;SDS011;75643;56.928;41.094;2024-01-25T15:03:59;15.52;;;6.68;;
85243;SDS011;75643;56.928;41.094;2024-01-25T15:06:26;13.27;;;5.80;;
85243;SDS011;75643;56.928;41.094;2024-01-25T15:08:56;15.60;;;6.93;;
85243;SDS011;75643;56.928;41.094;2024-01-25T15:11:22;16.10;;;7.47;;
85243;SDS011;75643;56.928;41.094;2024-01-25T15:13:49;12.45;;;6.15;;
85243;SDS011;75643;56.928;41.094;2024-01-25T15:16:15;18.98;;;6.65;;
85243;SDS011;75643;56.928;41.094;2024-01-25T15:18:43;14.48;;;4.80;;
85243;SDS011;75643;56.928;41.094;2024-01-25T15:21:09;13.43;;;6.53;;
85243;SDS011;75643;56.928;41.094;2024-01-25T15:23:35;15.82;;;6.57;;
85243;SDS011;75643;56.928;41.094;2024-01-25T15:26:03;11.30;;;6.00;;
85243;SDS011;75643;56.928;41.094;2024-01-25T15:28:30;13.13;;;6.13;;
85243;SDS011;75643;56.928;41.094;2024-01-25T15:30:56;12.25;;;6.43;;
85243;SDS011;75643;56.928;41.094;2024-01-25T15:33:23;10.93;;;6.28;;
85243;SDS011;75643;56.928;41.094;2024-01-25T15:35:51;18.20;;;7.28;;
85243;SDS011;75643;56.928;41.094;2024-01-25T15:38:17;17.20;;;6.45;;
85243;SDS011;75643;56.928;41.094;2024-01-25T15:40:45;13.50;;;6.72;;
85243;SDS011;75643;56.928;41.094;2024-01-25T15:43:12;10.18;;;4.82;;
85243;SDS011;75643;56.928;41.094;2024-01-25T15:45:39;12.63;;;6.35;;
85243;SDS011;75643;56.928;41.094;2024-01-25T15:48:06;13.82;;;6.25;;
85243;SDS011;75643;56.928;41.094;2024-01-25T15:50:33;10.50;;;5.95;;
85243;SDS011;75643;56.928;41.094;2024-01-25T15:53:00;10.88;;;5.70;;
85243;SDS011;75643;56.928;41.094;2024-01-25T15:55:26;15.30;;;6.03;;
85243;SDS011;75643;56.928;41.094;2024-01-25T15:57:52;12.13;;;5.20;;
85243;SDS011;75643;56.928;41.094;2024-01-25T16:00:18;17.00;;;6.97;;
85243;SDS011;75643;56.928;41.094;2024-01-25T16:02:45;12.68;;;6.10;;
85243;SDS011;75643;56.928;41.094;2024-01-25T16:05:11;15.80;;;5.93;;
85243;SDS011;75643;56.928;41.094;2024-01-25T16:07:38;15.25;;;6.03;;
85243;SDS011;75643;56.928;41.094;2024-01-25T16:10:07;9.82;;;4.95;;